createdAt,value
2017-03-13T00:00:14.565Z,1016.4
2017-03-13T00:01:24.432Z,1016.4
2017-03-13T00:02:34.288Z,1016.38
2017-03-13T00:03:44.537Z,1016.37
2017-03-13T00:04:54.762Z,1016.39
2017-03-13T00:06:03.829Z,1016.41
2017-03-13T00:07:13.673Z,1016.45
2017-03-13T00:08:24.285Z,1016.45
2017-03-13T00:09:34.144Z,1016.5
2017-03-13T00:10:44.006Z,1016.52
2017-03-13T00:11:53.475Z,1016.52
2017-03-13T00:13:02.926Z,1016.53
2017-03-13T00:14:12.400Z,1016.53
2017-03-13T00:15:21.876Z,1016.57
2017-03-13T00:16:31.360Z,1016.6
2017-03-13T00:17:41.226Z,1016.59
2017-03-13T00:18:51.101Z,1016.57
2017-03-13T00:20:00.933Z,1016.6
2017-03-13T00:21:10.785Z,1016.58
2017-03-13T00:22:21.015Z,1016.6
2017-03-13T00:23:31.262Z,1016.57
2017-03-13T00:24:41.887Z,1016.6
2017-03-13T00:25:52.115Z,1016.59
2017-03-13T00:27:02.350Z,1016.56
2017-03-13T00:28:12.574Z,1016.6
2017-03-13T00:29:22.055Z,1016.59
2017-03-13T00:30:31.952Z,1016.6
2017-03-13T00:31:42.054Z,1016.61
2017-03-13T00:32:52.281Z,1016.61
2017-03-13T00:34:02.896Z,1016.65
2017-03-13T00:35:11.990Z,1016.7
2017-03-13T00:36:21.867Z,1016.72
2017-03-13T00:37:30.946Z,1016.74
2017-03-13T00:38:40.801Z,1016.68
2017-03-13T00:39:50.277Z,1016.68
2017-03-13T00:41:00.141Z,1016.72
2017-03-13T00:42:09.603Z,1016.74
2017-03-13T00:43:19.837Z,1016.77
2017-03-13T00:44:30.076Z,1016.82
2017-03-13T00:45:40.293Z,1016.8
2017-03-13T00:46:49.768Z,1016.82
2017-03-13T00:47:59.208Z,1016.89
2017-03-13T00:49:09.333Z,1016.93
2017-03-13T00:50:19.943Z,1016.93
2017-03-13T00:51:29.784Z,1016.92
2017-03-13T00:52:39.640Z,1016.97
2017-03-13T00:53:50.285Z,1016.97
2017-03-13T00:55:00.144Z,1017.04
2017-03-13T00:56:09.218Z,1017.02
2017-03-13T00:57:19.060Z,1017.02
2017-03-13T00:58:29.288Z,1017.06
2017-03-13T00:59:39.928Z,1017.1
2017-03-13T01:00:49.383Z,1017.04
2017-03-13T01:01:59.242Z,1017.05
2017-03-13T01:03:08.700Z,1017.12
2017-03-13T01:04:18.972Z,1017.06
2017-03-13T01:05:29.576Z,1017.15
2017-03-13T01:06:40.082Z,1017.11
2017-03-13T01:07:49.938Z,1017.13
2017-03-13T01:09:00.159Z,1017.1
2017-03-13T01:10:09.981Z,1017.14
2017-03-13T01:11:20.590Z,1017.11
2017-03-13T01:12:30.451Z,1017.13
2017-03-13T01:13:40.293Z,1017.14
2017-03-13T01:14:50.898Z,1017.05
2017-03-13T01:16:00.740Z,1017.08
2017-03-13T01:17:10.590Z,1017.09
2017-03-13T01:18:21.449Z,1017.05
2017-03-13T01:19:31.677Z,1017.06
2017-03-13T01:20:41.565Z,1017.04
2017-03-13T01:21:51.416Z,1017.07
2017-03-13T01:23:01.647Z,1017.03
2017-03-13T01:24:11.511Z,1017.02
2017-03-13T01:25:20.980Z,1017.06
2017-03-13T01:26:30.455Z,1017.08
2017-03-13T01:27:40.310Z,1017.05
2017-03-13T01:28:50.553Z,1017.06
2017-03-13T01:30:00.413Z,1017.01
2017-03-13T01:31:10.242Z,1017.04
2017-03-13T01:32:20.091Z,1017.06
2017-03-13T01:33:30.697Z,1017.06
2017-03-13T01:34:40.937Z,1017.04
2017-03-13T01:35:51.030Z,1017.09
2017-03-13T01:37:00.886Z,1017.1
2017-03-13T01:38:10.746Z,1017.09
2017-03-13T01:39:20.960Z,1017.08
2017-03-13T01:40:31.210Z,1017.1
2017-03-13T01:41:41.081Z,1017.06
2017-03-13T01:42:51.295Z,1017.11
2017-03-13T01:44:01.141Z,1017.14
2017-03-13T01:45:11.403Z,1017.13
2017-03-13T01:46:21.639Z,1017.14
2017-03-13T01:47:31.097Z,1017.13
2017-03-13T01:48:40.584Z,1017.11
2017-03-13T01:49:50.432Z,1017.15
2017-03-13T01:50:59.898Z,1017.15
2017-03-13T01:52:09.736Z,1017.19
2017-03-13T01:53:19.594Z,1017.24
2017-03-13T01:54:29.444Z,1017.24
2017-03-13T01:55:39.676Z,1017.28
2017-03-13T01:56:49.917Z,1017.32
2017-03-13T01:57:59.761Z,1017.3
2017-03-13T01:59:09.879Z,1017.34
2017-03-13T02:00:20.502Z,1017.4
2017-03-13T02:01:30.352Z,1017.34
2017-03-13T02:02:39.813Z,1017.38
2017-03-13T02:03:50.103Z,1017.39
2017-03-13T02:05:00.315Z,1017.43
2017-03-13T02:06:09.789Z,1017.46
2017-03-13T02:07:19.998Z,1017.49
2017-03-13T02:08:30.227Z,1017.49
2017-03-13T02:09:39.704Z,1017.51
2017-03-13T02:10:49.560Z,1017.52
2017-03-13T02:11:58.625Z,1017.57
2017-03-13T02:13:08.083Z,1017.59
2017-03-13T02:14:18.326Z,1017.61
2017-03-13T02:15:28.558Z,1017.62
2017-03-13T02:16:38.683Z,1017.63
2017-03-13T02:17:48.515Z,1017.67
2017-03-13T02:18:57.592Z,1017.68
2017-03-13T02:20:07.046Z,1017.69
2017-03-13T02:21:17.288Z,1017.7
2017-03-13T02:22:26.399Z,1017.7
2017-03-13T02:23:36.634Z,1017.7
2017-03-13T02:24:46.857Z,1017.72
2017-03-13T02:25:57.087Z,1017.62
2017-03-13T02:27:06.545Z,1017.7
2017-03-13T02:28:17.043Z,1017.74
2017-03-13T02:29:26.902Z,1017.71
2017-03-13T02:30:36.772Z,1017.71
2017-03-13T02:31:46.231Z,1017.73
2017-03-13T02:32:55.312Z,1017.72
2017-03-13T02:34:05.144Z,1017.74
2017-03-13T02:35:15.039Z,1017.74
2017-03-13T02:36:25.642Z,1017.71
2017-03-13T02:37:35.507Z,1017.73
2017-03-13T02:38:44.990Z,1017.74
2017-03-13T02:39:55.101Z,1017.7
2017-03-13T02:41:05.327Z,1017.7
2017-03-13T02:42:14.809Z,1017.71
2017-03-13T02:43:25.048Z,1017.72
2017-03-13T02:44:35.272Z,1017.67
2017-03-13T02:45:45.889Z,1017.75
2017-03-13T02:46:55.371Z,1017.72
2017-03-13T02:48:05.609Z,1017.73
2017-03-13T02:49:14.688Z,1017.77
2017-03-13T02:50:24.922Z,1017.79
2017-03-13T02:51:34.759Z,1017.79
2017-03-13T02:52:44.996Z,1017.74
2017-03-13T02:53:55.614Z,1017.77
2017-03-13T02:55:05.072Z,1017.72
2017-03-13T02:56:14.933Z,1017.77
2017-03-13T02:57:25.033Z,1017.76
2017-03-13T02:58:35.291Z,1017.78
2017-03-13T02:59:44.764Z,1017.78
2017-03-13T03:00:54.256Z,1017.78
2017-03-13T03:02:03.711Z,1017.81
2017-03-13T03:03:14.233Z,1017.79
2017-03-13T03:04:23.700Z,1017.76
2017-03-13T03:05:33.174Z,1017.76
2017-03-13T03:06:43.009Z,1017.76
2017-03-13T03:07:53.227Z,1017.8
2017-03-13T03:09:03.516Z,1017.83
2017-03-13T03:10:13.730Z,1017.85
2017-03-13T03:11:24.335Z,1017.95
2017-03-13T03:12:34.551Z,1017.97
2017-03-13T03:13:44.782Z,1017.98
2017-03-13T03:14:55.028Z,1017.99
2017-03-13T03:16:04.495Z,1017.97
2017-03-13T03:17:14.358Z,1018.03
2017-03-13T03:18:24.199Z,1018.04
2017-03-13T03:19:34.044Z,1018.02
2017-03-13T03:20:43.706Z,1018.02
2017-03-13T03:21:53.555Z,1018.04
2017-03-13T03:23:03.778Z,1018.07
2017-03-13T03:24:13.235Z,1018.11
2017-03-13T03:25:23.075Z,1018.11
2017-03-13T03:26:33.293Z,1018.13
2017-03-13T03:27:43.125Z,1018.12
2017-03-13T03:28:52.650Z,1018.07
2017-03-13T03:30:02.512Z,1018.09
2017-03-13T03:31:11.204Z,1018.11
2017-03-13T03:32:21.425Z,1018.11
2017-03-13T03:33:31.692Z,1018.08
2017-03-13T03:34:41.567Z,1018.06
2017-03-13T03:35:51.430Z,1018.08
2017-03-13T03:37:01.661Z,1018.12
2017-03-13T03:38:12.519Z,1018.12
2017-03-13T03:39:22.780Z,1018.15
2017-03-13T03:40:32.636Z,1018.17
2017-03-13T03:41:42.090Z,1018.17
2017-03-13T03:42:51.929Z,1018.22
2017-03-13T03:44:02.151Z,1018.23
2017-03-13T03:45:11.989Z,1018.21
2017-03-13T03:46:22.216Z,1018.22
2017-03-13T03:47:32.072Z,1018.29
2017-03-13T03:48:41.936Z,1018.26
2017-03-13T03:49:51.597Z,1018.28
2017-03-13T03:51:01.448Z,1018.31
2017-03-13T03:52:10.913Z,1018.32
2017-03-13T03:53:21.158Z,1018.34
2017-03-13T03:54:30.992Z,1018.36
2017-03-13T03:55:41.237Z,1018.33
2017-03-13T03:56:50.699Z,1018.35
2017-03-13T03:58:00.543Z,1018.4
2017-03-13T03:59:10.394Z,1018.39
2017-03-13T04:00:21.011Z,1018.42
2017-03-13T04:01:30.469Z,1018.42
2017-03-13T04:02:39.593Z,1018.42
2017-03-13T04:03:50.209Z,1018.46
2017-03-13T04:05:00.061Z,1018.39
2017-03-13T04:06:09.530Z,1018.42
2017-03-13T04:07:20.011Z,1018.4
2017-03-13T04:08:29.842Z,1018.32
2017-03-13T04:09:39.678Z,1018.33
2017-03-13T04:10:48.757Z,1018.32
2017-03-13T04:11:57.847Z,1018.3
2017-03-13T04:13:08.699Z,1018.32
2017-03-13T04:14:18.551Z,1018.36
2017-03-13T04:15:28.386Z,1018.41
2017-03-13T04:16:37.854Z,1018.41
2017-03-13T04:17:47.318Z,1018.44
2017-03-13T04:18:57.184Z,1018.38
2017-03-13T04:20:06.634Z,1018.4
2017-03-13T04:21:16.843Z,1018.37
2017-03-13T04:22:27.057Z,1018.38
2017-03-13T04:23:36.912Z,1018.36
2017-03-13T04:24:47.026Z,1018.33
2017-03-13T04:25:56.867Z,1018.38
2017-03-13T04:27:07.115Z,1018.36
2017-03-13T04:28:17.360Z,1018.42
2017-03-13T04:29:27.222Z,1018.41
2017-03-13T04:30:37.444Z,1018.45
2017-03-13T04:31:47.294Z,1018.44
2017-03-13T04:32:57.157Z,1018.39
2017-03-13T04:34:07.002Z,1018.47
2017-03-13T04:35:16.855Z,1018.42
2017-03-13T04:36:26.338Z,1018.44
2017-03-13T04:37:35.406Z,1018.38
2017-03-13T04:38:45.270Z,1018.42
2017-03-13T04:39:55.482Z,1018.4
2017-03-13T04:41:04.560Z,1018.38
2017-03-13T04:42:13.832Z,1018.44
2017-03-13T04:43:23.690Z,1018.46
2017-03-13T04:44:33.918Z,1018.46
2017-03-13T04:45:44.552Z,1018.46
2017-03-13T04:46:54.804Z,1018.48
2017-03-13T04:48:05.044Z,1018.48
2017-03-13T04:49:14.122Z,1018.46
2017-03-13T04:50:24.355Z,1018.49
2017-03-13T04:51:34.588Z,1018.48
2017-03-13T04:52:44.444Z,1018.55
2017-03-13T04:53:54.284Z,1018.6
2017-03-13T04:55:04.515Z,1018.65
2017-03-13T04:56:14.346Z,1018.68
2017-03-13T04:57:24.591Z,1018.73
2017-03-13T04:58:34.844Z,1018.78
2017-03-13T04:59:44.312Z,1018.81
2017-03-13T05:00:54.147Z,1018.82
2017-03-13T05:02:03.992Z,1018.81
2017-03-13T05:03:13.078Z,1018.82
2017-03-13T05:04:23.316Z,1018.79
2017-03-13T05:05:33.545Z,1018.83
2017-03-13T05:06:43.393Z,1018.83
2017-03-13T05:07:53.625Z,1018.84
2017-03-13T05:09:03.856Z,1018.82
2017-03-13T05:10:13.696Z,1018.84
2017-03-13T05:11:23.959Z,1018.92
2017-03-13T05:12:34.214Z,1018.87
2017-03-13T05:13:44.443Z,1018.91
2017-03-13T05:14:53.529Z,1018.89
2017-03-13T05:16:03.776Z,1018.9
2017-03-13T05:17:13.439Z,1018.85
2017-03-13T05:18:22.910Z,1018.86
2017-03-13T05:19:33.151Z,1018.82
2017-03-13T05:20:43.366Z,1018.74
2017-03-13T05:21:53.212Z,1018.8
2017-03-13T05:23:03.085Z,1018.83
2017-03-13T05:24:13.308Z,1018.9
2017-03-13T05:25:23.542Z,1018.84
2017-03-13T05:26:33.410Z,1018.89
2017-03-13T05:27:43.654Z,1018.89
2017-03-13T05:28:53.323Z,1018.86
2017-03-13T05:30:03.167Z,1018.91
2017-03-13T05:31:13.029Z,1018.91
2017-03-13T05:32:22.487Z,1018.9
2017-03-13T05:33:33.105Z,1018.91
2017-03-13T05:34:43.534Z,1018.93
2017-03-13T05:35:53.765Z,1018.95
2017-03-13T05:37:04.002Z,1018.95
2017-03-13T05:38:14.258Z,1018.89
2017-03-13T05:39:24.100Z,1018.89
2017-03-13T05:40:34.323Z,1018.89
2017-03-13T05:41:44.932Z,1018.9
2017-03-13T05:42:54.382Z,1018.9
2017-03-13T05:44:04.606Z,1018.92
2017-03-13T05:45:14.068Z,1018.93
2017-03-13T05:46:24.577Z,1018.88
2017-03-13T05:47:34.799Z,1018.92
2017-03-13T05:48:45.035Z,1018.94
2017-03-13T05:49:55.629Z,1018.95
2017-03-13T05:51:05.097Z,1019
2017-03-13T05:52:14.557Z,1019.01
2017-03-13T05:53:24.389Z,1019.04
2017-03-13T05:54:33.843Z,1019.06
2017-03-13T05:55:43.675Z,1019.11
2017-03-13T05:56:53.529Z,1019.06
2017-03-13T05:58:02.595Z,1019.1
2017-03-13T05:59:12.438Z,1019.06
2017-03-13T06:00:22.285Z,1019.11
2017-03-13T06:01:32.127Z,1019.16
2017-03-13T06:02:42.740Z,1019.17
2017-03-13T06:03:52.611Z,1019.16
2017-03-13T06:05:02.446Z,1019.15
2017-03-13T06:06:12.295Z,1019.23
2017-03-13T06:07:22.182Z,1019.19
2017-03-13T06:08:31.244Z,1019.21
2017-03-13T06:09:41.503Z,1019.23
2017-03-13T06:10:50.574Z,1019.26
2017-03-13T06:12:00.433Z,1019.22
2017-03-13T06:13:10.276Z,1019.23
2017-03-13T06:14:19.745Z,1019.18
2017-03-13T06:15:30.602Z,1019.18
2017-03-13T06:16:40.437Z,1019.21
2017-03-13T06:17:50.277Z,1019.2
2017-03-13T06:19:00.111Z,1019.31
2017-03-13T06:20:09.208Z,1019.28
2017-03-13T06:21:19.436Z,1019.26
2017-03-13T06:22:28.908Z,1019.22
2017-03-13T06:23:39.123Z,1019.24
2017-03-13T06:24:49.373Z,1019.17
2017-03-13T06:25:58.828Z,1019.24
2017-03-13T06:27:08.924Z,1019.23
2017-03-13T06:28:19.566Z,1019.31
2017-03-13T06:29:29.812Z,1019.31
2017-03-13T06:30:40.040Z,1019.35
2017-03-13T06:31:49.526Z,1019.39
2017-03-13T06:32:59.367Z,1019.41
2017-03-13T06:34:09.211Z,1019.44
2017-03-13T06:35:19.059Z,1019.45
2017-03-13T06:36:29.301Z,1019.45
2017-03-13T06:37:38.803Z,1019.51
2017-03-13T06:38:48.645Z,1019.5
2017-03-13T06:39:58.494Z,1019.57
2017-03-13T06:41:08.751Z,1019.59
2017-03-13T06:42:18.986Z,1019.61
2017-03-13T06:43:28.455Z,1019.67
2017-03-13T06:44:37.522Z,1019.66
2017-03-13T06:45:46.972Z,1019.67
2017-03-13T06:46:57.195Z,1019.66
2017-03-13T06:48:07.431Z,1019.68
2017-03-13T06:49:16.528Z,1019.61
2017-03-13T06:50:26.657Z,1019.64
2017-03-13T06:51:36.507Z,1019.63
2017-03-13T06:52:46.773Z,1019.67
2017-03-13T06:53:57.030Z,1019.63
2017-03-13T06:55:07.246Z,1019.68
2017-03-13T06:56:17.123Z,1019.71
2017-03-13T06:57:26.960Z,1019.71
2017-03-13T06:58:37.175Z,1019.72
2017-03-13T06:59:47.421Z,1019.7
2017-03-13T07:00:56.892Z,1019.71
2017-03-13T07:02:06.243Z,1019.74
2017-03-13T07:03:16.482Z,1019.75
2017-03-13T07:04:26.753Z,1019.7
2017-03-13T07:05:36.998Z,1019.66
2017-03-13T07:06:47.255Z,1019.66
2017-03-13T07:07:57.502Z,1019.71
2017-03-13T07:09:06.985Z,1019.7
2017-03-13T07:10:16.835Z,1019.76
2017-03-13T07:11:25.902Z,1019.85
2017-03-13T07:12:36.127Z,1019.83
2017-03-13T07:13:46.234Z,1019.96
2017-03-13T07:14:56.462Z,1020.02
2017-03-13T07:16:06.718Z,1020.04
2017-03-13T07:17:16.220Z,1019.98
2017-03-13T07:18:26.060Z,1020.03
2017-03-13T07:19:36.278Z,1020.08
2017-03-13T07:20:47.169Z,1020.11
2017-03-13T07:21:57.015Z,1020.15
2017-03-13T07:23:06.875Z,1020.16
2017-03-13T07:24:17.109Z,1020.29
2017-03-13T07:25:27.237Z,1020.3
2017-03-13T07:26:37.166Z,1020.4
2017-03-13T07:27:47.089Z,1020.39
2017-03-13T07:28:56.934Z,1020.44
2017-03-13T07:30:07.268Z,1020.48
2017-03-13T07:31:16.747Z,1020.5
2017-03-13T07:32:26.288Z,1020.53
2017-03-13T07:33:36.133Z,1020.53
2017-03-13T07:34:45.589Z,1020.56
2017-03-13T07:35:55.048Z,1020.6
2017-03-13T07:37:04.948Z,1020.65
2017-03-13T07:38:15.312Z,1020.69
2017-03-13T07:39:24.797Z,1020.77
2017-03-13T07:40:33.899Z,1020.79
2017-03-13T07:41:44.215Z,1020.81
2017-03-13T07:42:54.005Z,1020.81
2017-03-13T07:44:03.484Z,1020.86
2017-03-13T07:45:14.087Z,1020.89
2017-03-13T07:46:23.575Z,1020.94
2017-03-13T07:47:33.416Z,1020.91
2017-03-13T07:48:43.546Z,1021
2017-03-13T07:49:53.389Z,1021.05
2017-03-13T07:51:02.689Z,1021.1
2017-03-13T07:52:12.584Z,1021.13
2017-03-13T07:53:22.055Z,1021.15
2017-03-13T07:54:31.545Z,1021.16
2017-03-13T07:55:41.415Z,1021.15
2017-03-13T07:56:51.300Z,1021.09
2017-03-13T07:58:01.231Z,1021.1
2017-03-13T07:59:11.708Z,1021.07
2017-03-13T08:00:21.566Z,1021.08
2017-03-13T08:01:31.029Z,1021.15
2017-03-13T08:02:40.899Z,1021.21
2017-03-13T08:03:50.369Z,1021.26
2017-03-13T08:04:59.446Z,1021.29
2017-03-13T08:06:08.543Z,1021.27
2017-03-13T08:07:18.778Z,1021.3
2017-03-13T08:08:28.626Z,1021.38
2017-03-13T08:09:38.861Z,1021.35
2017-03-13T08:10:48.729Z,1021.36
2017-03-13T08:11:58.965Z,1021.41
2017-03-13T08:13:08.814Z,1021.41
2017-03-13T08:14:18.711Z,1021.39
2017-03-13T08:15:28.574Z,1021.42
2017-03-13T08:16:38.044Z,1021.46
2017-03-13T08:17:48.168Z,1021.46
2017-03-13T08:18:57.627Z,1021.57
2017-03-13T08:20:06.707Z,1021.59
2017-03-13T08:21:16.923Z,1021.64
2017-03-13T08:22:26.010Z,1021.66
2017-03-13T08:23:35.872Z,1021.7
2017-03-13T08:24:46.095Z,1021.73
2017-03-13T08:25:55.935Z,1021.72
2017-03-13T08:27:05.776Z,1021.84
2017-03-13T08:28:15.619Z,1021.96
2017-03-13T08:29:25.339Z,1022.05
2017-03-13T08:30:34.424Z,1022.08
2017-03-13T08:31:44.283Z,1022.06
2017-03-13T08:32:54.539Z,1021.98
2017-03-13T08:34:04.391Z,1021.91
2017-03-13T08:35:13.085Z,1021.78
2017-03-13T08:36:23.345Z,1021.71
2017-03-13T08:37:33.960Z,1021.63
2017-03-13T08:38:43.056Z,1021.59
2017-03-13T08:39:53.399Z,1021.58
2017-03-13T08:41:03.779Z,1021.56
2017-03-13T08:42:13.640Z,1021.62
2017-03-13T08:43:24.729Z,1021.59
2017-03-13T08:44:34.974Z,1021.62
2017-03-13T08:45:45.037Z,1021.63
2017-03-13T08:46:54.916Z,1021.7
2017-03-13T08:48:04.785Z,1021.74
2017-03-13T08:49:14.410Z,1021.78
2017-03-13T08:50:24.657Z,1021.84
2017-03-13T08:51:35.280Z,1021.83
2017-03-13T08:52:45.531Z,1021.82
2017-03-13T08:53:55.077Z,1021.88
2017-03-13T08:55:05.340Z,1021.9
2017-03-13T08:56:15.260Z,1021.94
2017-03-13T08:57:25.194Z,1021.98
2017-03-13T08:58:35.340Z,1022.02
2017-03-13T08:59:45.219Z,1022.1
2017-03-13T09:00:55.443Z,1022.14
2017-03-13T09:02:04.556Z,1022.14
2017-03-13T09:03:14.391Z,1022.14
2017-03-13T09:04:24.251Z,1022.2
2017-03-13T09:05:34.118Z,1022.25
2017-03-13T09:06:44.407Z,1022.31
2017-03-13T09:07:54.682Z,1022.37
2017-03-13T09:09:04.524Z,1022.34
2017-03-13T09:10:14.508Z,1022.29
2017-03-13T09:11:23.295Z,1022.34
2017-03-13T09:12:32.909Z,1022.39
2017-03-13T09:13:44.365Z,1022.43
2017-03-13T09:14:55.340Z,1022.43
2017-03-13T09:16:05.037Z,1022.42
2017-03-13T09:17:15.097Z,1022.45
2017-03-13T09:18:25.003Z,1022.46
2017-03-13T09:19:35.643Z,1022.49
2017-03-13T09:20:45.692Z,1022.55
2017-03-13T09:21:54.996Z,1022.6
2017-03-13T09:23:04.373Z,1022.68
2017-03-13T09:24:14.733Z,1022.65
2017-03-13T09:25:24.797Z,1022.7
2017-03-13T09:26:34.576Z,1022.66
2017-03-13T09:27:45.090Z,1022.66
2017-03-13T09:28:55.038Z,1022.66
2017-03-13T09:30:05.449Z,1022.67
2017-03-13T09:31:15.461Z,1022.66
2017-03-13T09:32:26.023Z,1022.68
2017-03-13T09:33:36.465Z,1022.65
2017-03-13T09:34:47.105Z,1022.63
2017-03-13T09:35:56.352Z,1022.58
2017-03-13T09:37:06.216Z,1022.56
2017-03-13T09:38:15.114Z,1022.5
2017-03-13T09:39:25.727Z,1022.52
2017-03-13T09:40:35.864Z,1022.5
2017-03-13T09:41:47.113Z,1022.5
2017-03-13T09:42:57.411Z,1022.46
2017-03-13T09:44:07.510Z,1022.49
2017-03-13T09:45:17.683Z,1022.51
2017-03-13T09:46:28.438Z,1022.53
2017-03-13T09:47:38.702Z,1022.51
2017-03-13T09:48:47.989Z,1022.6
2017-03-13T09:49:58.164Z,1022.56
2017-03-13T09:51:08.625Z,1022.56
2017-03-13T09:52:19.245Z,1022.56
2017-03-13T09:53:38.120Z,1022.55
2017-03-13T09:54:49.048Z,1022.48
2017-03-13T09:56:02.243Z,1022.53
2017-03-13T09:57:12.434Z,1022.53
2017-03-13T09:58:22.224Z,1022.51
2017-03-13T09:59:32.104Z,1022.49
2017-03-13T10:00:42.720Z,1022.53
2017-03-13T10:01:53.006Z,1022.55
2017-03-13T10:03:03.916Z,1022.63
2017-03-13T10:04:14.976Z,1022.7
2017-03-13T10:05:25.518Z,1022.78
2017-03-13T10:06:35.574Z,1022.85
2017-03-13T10:07:46.080Z,1023.1
2017-03-13T10:08:56.584Z,1023.07
2017-03-13T10:10:06.466Z,1023.09
2017-03-13T10:11:17.136Z,1023.34
2017-03-13T10:12:26.602Z,1023.88
2017-03-13T10:13:36.466Z,1023.66
2017-03-13T10:14:46.750Z,1023.48
2017-03-13T10:15:57.378Z,1023.38
2017-03-13T10:17:07.267Z,1023.42
2017-03-13T10:18:17.511Z,1023.61
2017-03-13T10:19:27.393Z,1023.68
2017-03-13T10:20:36.736Z,1023.57
2017-03-13T10:21:46.989Z,1023.43
2017-03-13T10:22:57.599Z,1023.48
2017-03-13T10:24:07.848Z,1023.33
2017-03-13T10:25:17.719Z,1023.39
2017-03-13T10:26:27.861Z,1023.39
2017-03-13T10:27:37.766Z,1023.61
2017-03-13T10:28:48.415Z,1023.55
2017-03-13T10:29:58.288Z,1023.57
2017-03-13T10:31:08.170Z,1023.55
2017-03-13T10:32:17.648Z,1023.42
2017-03-13T10:33:27.125Z,1023.44
2017-03-13T10:34:36.982Z,1023.54
2017-03-13T10:35:46.872Z,1023.57
2017-03-13T10:36:55.584Z,1023.53
2017-03-13T10:38:05.063Z,1023.33
2017-03-13T10:39:14.983Z,1023.34
2017-03-13T10:40:25.227Z,1023.33
2017-03-13T10:41:34.739Z,1023.21
2017-03-13T10:42:44.254Z,1023.21
2017-03-13T10:43:55.072Z,1023.23
2017-03-13T10:45:05.318Z,1023.24
2017-03-13T10:46:15.598Z,1023.15
2017-03-13T10:47:24.693Z,1023.13
2017-03-13T10:48:34.546Z,1023.08
2017-03-13T10:49:44.436Z,1023.05
2017-03-13T10:50:54.703Z,1023.13
2017-03-13T10:52:04.186Z,1023.13
2017-03-13T10:53:14.071Z,1023.13
2017-03-13T10:54:23.929Z,1023.12
2017-03-13T10:55:34.037Z,1023.11
2017-03-13T10:56:43.519Z,1023.08
2017-03-13T10:57:52.988Z,1023.18
2017-03-13T10:59:02.505Z,1023.15
2017-03-13T11:00:12.754Z,1023.13
2017-03-13T11:01:23.015Z,1023.12
2017-03-13T11:02:33.253Z,1023.16
2017-03-13T11:03:42.734Z,1023.15
2017-03-13T11:04:53.182Z,1023.19
2017-03-13T11:06:12.103Z,1023.21
2017-03-13T11:07:33.387Z,1023.21
2017-03-13T11:08:49.956Z,1023.27
2017-03-13T11:10:10.016Z,1023.29
2017-03-13T11:11:29.689Z,1023.28
2017-03-13T11:12:47.005Z,1023.27
2017-03-13T11:13:56.113Z,1023.27
2017-03-13T11:15:05.995Z,1023.32
2017-03-13T11:16:16.639Z,1023.26
2017-03-13T11:17:26.900Z,1023.24
2017-03-13T11:18:37.176Z,1023.2
2017-03-13T11:19:47.275Z,1023.23
2017-03-13T11:20:57.146Z,1023.25
2017-03-13T11:22:07.008Z,1023.22
2017-03-13T11:23:16.865Z,1023.23
2017-03-13T11:24:27.500Z,1023.28
2017-03-13T11:25:37.833Z,1023.31
2017-03-13T11:26:47.693Z,1023.37
2017-03-13T11:27:57.936Z,1023.37
2017-03-13T11:29:08.197Z,1023.38
2017-03-13T11:30:18.044Z,1023.36
2017-03-13T11:31:27.909Z,1023.37
2017-03-13T11:32:37.786Z,1023.38
2017-03-13T11:33:47.643Z,1023.34
2017-03-13T11:34:57.970Z,1023.33
2017-03-13T11:36:07.819Z,1023.35
2017-03-13T11:37:16.911Z,1023.34
2017-03-13T11:38:26.806Z,1023.36
2017-03-13T11:39:37.069Z,1023.39
2017-03-13T11:40:47.372Z,1023.35
2017-03-13T11:41:58.012Z,1023.34
2017-03-13T11:43:08.451Z,1023.31
2017-03-13T11:44:18.305Z,1023.33
2017-03-13T11:45:28.532Z,1023.31
2017-03-13T11:46:38.780Z,1023.28
2017-03-13T11:47:48.657Z,1023.31
2017-03-13T11:48:59.271Z,1023.27
2017-03-13T11:50:09.529Z,1023.31
2017-03-13T11:51:18.696Z,1023.36
2017-03-13T11:52:28.951Z,1023.33
2017-03-13T11:53:38.879Z,1023.36
2017-03-13T11:54:48.575Z,1023.35
2017-03-13T11:55:58.438Z,1023.33
2017-03-13T11:57:07.535Z,1023.38
2017-03-13T11:58:17.406Z,1023.39
2017-03-13T11:59:26.872Z,1023.4
2017-03-13T12:00:37.159Z,1023.41
2017-03-13T12:01:46.634Z,1023.38
2017-03-13T12:02:56.891Z,1023.4
2017-03-13T12:04:06.003Z,1023.37
2017-03-13T12:05:15.850Z,1023.35
2017-03-13T12:06:26.340Z,1023.33
2017-03-13T12:07:36.575Z,1023.29
2017-03-13T12:08:46.830Z,1023.3
2017-03-13T12:09:57.094Z,1023.31
2017-03-13T12:11:07.343Z,1023.27
2017-03-13T12:12:16.838Z,1023.26
2017-03-13T12:13:26.320Z,1023.25
2017-03-13T12:14:35.826Z,1023.22
2017-03-13T12:15:46.053Z,1023.23
2017-03-13T12:16:55.570Z,1023.16
2017-03-13T12:18:06.057Z,1023.06
2017-03-13T12:19:15.914Z,1023.03
2017-03-13T12:20:26.152Z,1023
2017-03-13T12:21:35.629Z,1023.02
2017-03-13T12:22:45.489Z,1023.01
2017-03-13T12:23:55.343Z,1023.05
2017-03-13T12:25:04.044Z,1023.06
2017-03-13T12:26:13.890Z,1023.09
2017-03-13T12:27:23.779Z,1023.1
2017-03-13T12:28:33.258Z,1023.02
2017-03-13T12:29:43.749Z,1023.05
2017-03-13T12:30:53.604Z,1023.08
2017-03-13T12:32:03.478Z,1023.04
2017-03-13T12:33:12.193Z,1023.1
2017-03-13T12:34:22.054Z,1023.08
2017-03-13T12:35:31.543Z,1023.12
2017-03-13T12:36:41.423Z,1023.12
2017-03-13T12:37:50.888Z,1023.12
2017-03-13T12:39:00.381Z,1023.16
2017-03-13T12:40:10.229Z,1023.15
2017-03-13T12:41:19.973Z,1023.21
2017-03-13T12:42:29.461Z,1023.23
2017-03-13T12:43:39.329Z,1023.23
2017-03-13T12:44:49.213Z,1023.27
2017-03-13T12:45:59.081Z,1023.23
2017-03-13T12:47:08.542Z,1023.25
2017-03-13T12:48:18.412Z,1023.17
2017-03-13T12:49:28.667Z,1023.15
2017-03-13T12:50:38.905Z,1023.18
2017-03-13T12:55:15.070Z,1023.26
2017-03-13T12:56:25.711Z,1023.27
2017-03-13T12:57:35.170Z,1023.28
2017-03-13T12:58:45.018Z,1023.31
2017-03-13T12:59:54.513Z,1023.37
2017-03-13T13:01:04.347Z,1023.38
2017-03-13T13:02:14.551Z,1023.39
2017-03-13T13:03:23.597Z,1023.33
2017-03-13T13:04:32.904Z,1023.33
2017-03-13T13:05:42.730Z,1023.33
2017-03-13T13:06:52.547Z,1023.38
2017-03-13T13:08:02.379Z,1023.4
2017-03-13T13:09:12.966Z,1023.34
2017-03-13T13:10:23.166Z,1023.3
2017-03-13T13:11:32.593Z,1023.28
2017-03-13T13:12:41.637Z,1023.23
2017-03-13T13:13:50.304Z,1023.23
2017-03-13T13:14:58.978Z,1023.2
2017-03-13T13:16:08.275Z,1023.22
2017-03-13T13:17:17.713Z,1023.28
2017-03-13T13:18:26.774Z,1023.29
2017-03-13T13:19:36.601Z,1023.31
2017-03-13T13:20:46.427Z,1023.39
2017-03-13T13:21:55.857Z,1023.38
2017-03-13T13:23:06.103Z,1023.39
2017-03-13T13:24:16.114Z,1023.41
2017-03-13T13:25:25.933Z,1023.39
2017-03-13T13:26:35.752Z,1023.41
2017-03-13T13:27:45.815Z,1023.37
2017-03-13T13:28:56.424Z,1023.45
2017-03-13T13:30:05.630Z,1023.45
2017-03-13T13:31:15.068Z,1023.49
2017-03-13T13:32:24.545Z,1023.44
2017-03-13T13:33:34.364Z,1023.47
2017-03-13T13:34:44.568Z,1023.49
2017-03-13T13:35:55.154Z,1023.5
2017-03-13T13:37:05.357Z,1023.56
2017-03-13T13:38:14.798Z,1023.53
2017-03-13T13:39:24.880Z,1023.55
2017-03-13T13:40:34.401Z,1023.57
2017-03-13T13:41:44.612Z,1023.57
2017-03-13T13:42:54.429Z,1023.58
2017-03-13T13:44:04.632Z,1023.6
2017-03-13T13:45:14.606Z,1023.52
2017-03-13T13:46:25.193Z,1023.51
2017-03-13T13:47:35.403Z,1023.48
2017-03-13T13:48:45.644Z,1023.48
2017-03-13T13:49:55.481Z,1023.53
2017-03-13T13:51:05.500Z,1023.58
2017-03-13T13:52:15.346Z,1023.64
2017-03-13T13:53:25.958Z,1023.63
2017-03-13T13:54:35.393Z,1023.7
2017-03-13T13:55:45.597Z,1023.68
2017-03-13T13:56:55.801Z,1023.72
2017-03-13T13:58:05.994Z,1023.73
2017-03-13T13:59:16.201Z,1023.69
2017-03-13T14:00:26.047Z,1023.69
2017-03-13T14:01:36.633Z,1023.71
2017-03-13T14:02:46.846Z,1023.76
2017-03-13T14:03:55.920Z,1023.74
2017-03-13T14:05:04.967Z,1023.76
2017-03-13T14:06:14.050Z,1023.84
2017-03-13T14:07:22.720Z,1023.79
2017-03-13T14:08:32.922Z,1023.82
2017-03-13T14:09:42.806Z,1023.82
2017-03-13T14:10:51.628Z,1023.77
2017-03-13T14:12:01.836Z,1023.79
2017-03-13T14:13:11.278Z,1023.79